createdAt,value
2023-01-13T00:00:03.141Z,99.99
2023-01-13T00:01:02.952Z,99.99
2023-01-13T00:02:03.148Z,99.99
2023-01-13T00:03:03.641Z,99.99
2023-01-13T00:04:03.982Z,99.99
2023-01-13T00:05:03.662Z,99.99
2023-01-13T00:06:04.028Z,99.99
2023-01-13T00:07:03.958Z,99.99
2023-01-13T00:08:04.840Z,99.99
2023-01-13T00:09:04.077Z,99.99
2023-01-13T00:10:04.210Z,99.99
2023-01-13T00:11:04.277Z,99.99
2023-01-13T00:12:04.478Z,99.99
2023-01-13T00:13:05.069Z,99.99
2023-01-13T00:14:05.033Z,99.99
2023-01-13T00:15:04.932Z,99.99
2023-01-13T00:16:05.644Z,99.99
2023-01-13T00:17:05.291Z,99.99
2023-01-13T00:18:05.314Z,99.99
2023-01-13T00:19:05.439Z,99.99
2023-01-13T00:20:05.595Z,99.99
2023-01-13T00:21:05.985Z,99.99
2023-01-13T00:22:06.228Z,99.99
2023-01-13T00:23:06.024Z,99.99
2023-01-13T00:24:06.174Z,99.99
2023-01-13T00:25:06.268Z,99.99
2023-01-13T00:26:06.587Z,99.99
2023-01-13T00:27:06.687Z,99.99
2023-01-13T00:28:07.350Z,99.99
2023-01-13T00:29:06.821Z,99.99
2023-01-13T00:30:07.119Z,99.99
2023-01-13T00:31:07.192Z,99.99
2023-01-13T00:32:07.236Z,99.99
2023-01-13T00:33:07.390Z,99.99
2023-01-13T00:34:07.516Z,99.99
2023-01-13T00:35:07.729Z,99.99
2023-01-13T00:36:07.834Z,99.99
2023-01-13T00:37:08.037Z,99.99
2023-01-13T00:38:08.116Z,99.99
2023-01-13T00:39:08.329Z,99.99
2023-01-13T00:40:08.517Z,99.99
2023-01-13T00:41:08.616Z,99.99
2023-01-13T00:42:08.704Z,99.99
2023-01-13T00:43:08.975Z,99.99
2023-01-13T00:44:09.033Z,99.99
2023-01-13T00:45:09.206Z,99.99
2023-01-13T00:46:09.230Z,99.99
2023-01-13T00:47:09.319Z,99.99
2023-01-13T00:48:09.598Z,99.99
2023-01-13T00:49:09.655Z,99.99
2023-01-13T00:50:09.688Z,99.99
2023-01-13T00:51:09.827Z,99.99
2023-01-13T00:52:10.399Z,99.99
2023-01-13T00:53:10.147Z,99.99
2023-01-13T00:54:10.451Z,99.99
2023-01-13T00:55:10.461Z,99.99
2023-01-13T00:56:10.614Z,99.99
2023-01-13T00:57:10.777Z,99.99
2023-01-13T00:58:10.953Z,99.99
2023-01-13T00:59:11.227Z,99.99
2023-01-13T01:00:11.346Z,99.99
2023-01-13T01:01:11.534Z,99.99
2023-01-13T01:02:11.649Z,99.99
2023-01-13T01:03:11.742Z,99.99
2023-01-13T01:04:11.954Z,99.99
2023-01-13T01:05:11.950Z,99.99
2023-01-13T01:06:12.173Z,99.99
2023-01-13T01:07:12.297Z,99.99
2023-01-13T01:08:12.411Z,99.99
2023-01-13T01:09:12.649Z,99.99
2023-01-13T01:10:12.598Z,99.99
2023-01-13T01:11:12.804Z,99.99
2023-01-13T01:12:12.907Z,99.99
2023-01-13T01:13:13.061Z,99.99
2023-01-13T01:14:13.215Z,99.99
2023-01-13T01:15:13.332Z,99.99
2023-01-13T01:16:13.599Z,99.99
2023-01-13T01:17:13.668Z,99.99
2023-01-13T01:18:13.811Z,99.99
2023-01-13T01:19:14.003Z,99.99
2023-01-13T01:20:14.155Z,99.99
2023-01-13T01:21:14.341Z,99.99
2023-01-13T01:22:14.450Z,99.99
2023-01-13T01:23:14.681Z,99.99
2023-01-13T01:24:14.718Z,99.99
2023-01-13T01:25:14.965Z,99.99
2023-01-13T01:26:15.049Z,99.99
2023-01-13T01:27:15.391Z,99.99
2023-01-13T01:28:15.375Z,99.99
2023-01-13T01:29:15.579Z,99.99
2023-01-13T01:30:15.633Z,99.99
2023-01-13T01:31:15.767Z,99.99
2023-01-13T01:32:15.854Z,99.99
2023-01-13T01:33:16.001Z,99.99
2023-01-13T01:34:16.163Z,99.99
2023-01-13T01:35:16.327Z,99.99
2023-01-13T01:36:16.456Z,99.99
2023-01-13T01:37:16.608Z,99.99
2023-01-13T01:38:16.763Z,99.99
2023-01-13T01:39:17.003Z,99.99
2023-01-13T01:40:17.049Z,99.99
2023-01-13T01:41:17.124Z,99.99
2023-01-13T01:42:17.353Z,99.99
2023-01-13T01:43:17.444Z,99.99
2023-01-13T01:44:17.601Z,99.99
2023-01-13T01:45:17.743Z,99.99
2023-01-13T01:46:17.958Z,99.99
2023-01-13T01:47:18.067Z,99.99
2023-01-13T01:48:18.201Z,99.99
2023-01-13T01:49:18.384Z,99.99
2023-01-13T01:50:18.580Z,99.99
2023-01-13T01:51:18.700Z,99.99
2023-01-13T01:52:18.849Z,99.99
2023-01-13T01:53:18.984Z,99.99
2023-01-13T01:54:19.234Z,99.99
2023-01-13T01:55:19.247Z,99.99
2023-01-13T01:56:19.354Z,99.99
2023-01-13T01:57:19.566Z,99.99
2023-01-13T01:58:19.674Z,99.99
2023-01-13T01:59:19.822Z,99.99
2023-01-13T02:00:19.969Z,99.99
2023-01-13T02:01:20.236Z,99.99
2023-01-13T02:02:20.261Z,99.99
2023-01-13T02:03:20.437Z,99.99
2023-01-13T02:04:20.575Z,99.99
2023-01-13T02:05:20.782Z,99.99
2023-01-13T02:06:20.869Z,99.99
2023-01-13T02:07:21.020Z,99.99
2023-01-13T02:08:21.112Z,99.99
2023-01-13T02:09:21.251Z,99.99
2023-01-13T02:10:21.401Z,99.99
2023-01-13T02:11:21.563Z,99.99
2023-01-13T02:12:21.938Z,99.99
2023-01-13T02:13:21.902Z,99.99
2023-01-13T02:14:22.038Z,99.99
2023-01-13T02:15:22.158Z,99.99
2023-01-13T02:16:22.415Z,99.99
2023-01-13T02:17:22.489Z,99.99
2023-01-13T02:18:22.632Z,99.99
2023-01-13T02:19:22.807Z,99.99
2023-01-13T02:20:22.948Z,99.99
2023-01-13T02:21:23.149Z,99.99
2023-01-13T02:22:23.237Z,99.99
2023-01-13T02:23:23.399Z,99.99
2023-01-13T02:24:23.594Z,99.99
2023-01-13T02:25:23.713Z,99.99
2023-01-13T02:26:23.919Z,99.99
2023-01-13T02:27:23.975Z,99.99
2023-01-13T02:28:24.107Z,99.99
2023-01-13T02:29:24.223Z,99.99
2023-01-13T02:30:24.376Z,99.99
2023-01-13T02:31:24.512Z,99.99
2023-01-13T02:32:24.731Z,99.99
2023-01-13T02:33:24.801Z,99.99
2023-01-13T02:34:24.930Z,99.99
2023-01-13T02:35:25.205Z,99.99
2023-01-13T02:36:25.269Z,99.99
2023-01-13T02:37:25.325Z,99.99
2023-01-13T02:38:25.507Z,99.58
2023-01-13T02:39:25.571Z,99.58
2023-01-13T02:40:25.784Z,99.58
2023-01-13T02:41:25.857Z,99.68
2023-01-13T02:42:26.008Z,99.79
2023-01-13T02:43:26.260Z,99.99
2023-01-13T02:44:26.297Z,99.99
2023-01-13T02:45:26.451Z,99.99
2023-01-13T02:46:26.554Z,99.79
2023-01-13T02:47:26.679Z,99.99
2023-01-13T02:48:26.846Z,99.79
2023-01-13T02:49:27.007Z,99.79
2023-01-13T02:50:27.220Z,99.89
2023-01-13T02:51:27.328Z,99.89
2023-01-13T02:52:27.634Z,99.68
2023-01-13T02:53:27.577Z,99.58
2023-01-13T02:54:27.713Z,99.12
2023-01-13T02:55:30.476Z,99.12
2023-01-13T02:56:28.168Z,99.12
2023-01-13T02:57:28.335Z,98.92
2023-01-13T02:58:28.317Z,99.02
2023-01-13T02:59:28.674Z,99.33
2023-01-13T03:00:28.668Z,99.43
2023-01-13T03:01:28.979Z,99.43
2023-01-13T03:02:29.037Z,99.79
2023-01-13T03:03:29.130Z,99.99
2023-01-13T03:04:29.259Z,99.99
2023-01-13T03:05:29.455Z,99.99
2023-01-13T03:06:29.600Z,99.33
2023-01-13T03:07:29.748Z,98.92
2023-01-13T03:08:29.859Z,98.92
2023-01-13T03:09:30.088Z,98.92
2023-01-13T03:10:30.260Z,99.02
2023-01-13T03:11:30.329Z,99.07
2023-01-13T03:12:30.475Z,99.38
2023-01-13T03:13:30.598Z,99.17
2023-01-13T03:14:30.740Z,98.86
2023-01-13T03:15:30.963Z,98.45
2023-01-13T03:16:31.194Z,98.10
2023-01-13T03:17:31.219Z,98.20
2023-01-13T03:18:31.413Z,97.89
2023-01-13T03:19:31.557Z,97.83
2023-01-13T03:20:31.628Z,97.28
2023-01-13T03:21:31.955Z,96.87
2023-01-13T03:22:31.964Z,96.66
2023-01-13T03:23:32.132Z,96.66
2023-01-13T03:24:32.216Z,96.56
2023-01-13T03:25:32.366Z,96.45
2023-01-13T03:26:32.487Z,96.45
2023-01-13T03:27:32.557Z,96.60
2023-01-13T03:28:32.743Z,96.91
2023-01-13T03:29:32.808Z,96.70
2023-01-13T03:30:32.995Z,96.70
2023-01-13T03:31:33.030Z,96.81
2023-01-13T03:32:33.151Z,97.02
2023-01-13T03:33:33.347Z,96.81
2023-01-13T03:34:33.438Z,95.02
2023-01-13T03:35:33.686Z,95.02
2023-01-13T03:36:33.740Z,95.32
2023-01-13T03:37:33.894Z,95.32
2023-01-13T03:38:34.070Z,95.68
2023-01-13T03:39:34.246Z,96.30
2023-01-13T03:40:34.529Z,96.70
2023-01-13T03:41:34.752Z,96.91
2023-01-13T03:42:34.875Z,96.91
2023-01-13T03:43:34.894Z,96.81
2023-01-13T03:44:34.876Z,96.65
2023-01-13T03:45:35.077Z,95.98
2023-01-13T03:46:35.104Z,95.57
2023-01-13T03:47:35.236Z,95.98
2023-01-13T03:48:35.416Z,96.55
2023-01-13T03:49:35.546Z,96.55
2023-01-13T03:50:35.595Z,96.65
2023-01-13T03:51:35.771Z,96.55
2023-01-13T03:52:35.902Z,96.65
2023-01-13T03:53:36.034Z,96.34
2023-01-13T03:54:36.282Z,96.14
2023-01-13T03:55:36.268Z,96.03
2023-01-13T03:56:36.370Z,95.62
2023-01-13T03:57:36.537Z,95.72
2023-01-13T03:58:36.701Z,95.93
2023-01-13T03:59:36.944Z,96.55
2023-01-13T04:00:36.941Z,96.48
2023-01-13T04:01:37.260Z,96.69
2023-01-13T04:02:37.316Z,95.93
2023-01-13T04:03:37.447Z,95.31
2023-01-13T04:04:37.543Z,95.52
2023-01-13T04:05:37.974Z,95.52
2023-01-13T04:06:37.793Z,95.21
2023-01-13T04:07:37.965Z,94.90
2023-01-13T04:08:38.148Z,94.80
2023-01-13T04:09:38.980Z,94.80
2023-01-13T04:10:38.425Z,95.42
2023-01-13T04:11:38.524Z,95.21
2023-01-13T04:12:38.955Z,94.90
2023-01-13T04:13:38.873Z,94.24
2023-01-13T04:14:38.990Z,94.59
2023-01-13T04:15:39.234Z,94.90
2023-01-13T04:16:39.209Z,94.90
2023-01-13T04:17:39.326Z,95.21
2023-01-13T04:18:39.550Z,95.01
2023-01-13T04:19:39.668Z,95.31
2023-01-13T04:20:39.902Z,95.31
2023-01-13T04:21:40.191Z,95.42
2023-01-13T04:22:40.302Z,95.93
2023-01-13T04:23:40.224Z,95.62
2023-01-13T04:24:40.349Z,95.72
2023-01-13T04:25:40.491Z,95.21
2023-01-13T04:26:40.664Z,95.42
2023-01-13T04:27:40.948Z,95.10
2023-01-13T04:28:40.975Z,94.90
2023-01-13T04:29:41.090Z,94.85
2023-01-13T04:30:41.190Z,94.65
2023-01-13T04:31:41.265Z,95.06
2023-01-13T04:32:41.442Z,95.10
2023-01-13T04:33:41.560Z,95.21
2023-01-13T04:34:41.644Z,95.31
2023-01-13T04:35:41.983Z,94.76
2023-01-13T04:36:41.959Z,94.65
2023-01-13T04:37:42.159Z,94.85
2023-01-13T04:38:42.379Z,94.65
2023-01-13T04:39:42.421Z,94.85
2023-01-13T04:40:42.885Z,95.06
2023-01-13T04:41:42.793Z,94.85
2023-01-13T04:42:42.881Z,94.80
2023-01-13T04:43:43.016Z,94.24
2023-01-13T04:44:43.126Z,93.83
2023-01-13T04:45:43.730Z,93.93
2023-01-13T04:46:43.774Z,93.32
2023-01-13T04:47:43.682Z,92.86
2023-01-13T04:48:43.731Z,93.27
2023-01-13T04:49:43.978Z,93.07
2023-01-13T04:50:44.052Z,92.55
2023-01-13T04:51:44.319Z,92.46
2023-01-13T04:52:44.440Z,92.55
2023-01-13T04:53:44.478Z,92.35
2023-01-13T04:54:44.669Z,91.63
2023-01-13T04:55:44.697Z,91.53
2023-01-13T04:56:45.021Z,91.18
2023-01-13T04:57:45.085Z,91.53
2023-01-13T04:58:45.227Z,90.87
2023-01-13T04:59:45.342Z,90.67
2023-01-13T05:00:45.432Z,90.97
2023-01-13T05:01:45.895Z,91.02
2023-01-13T05:02:45.969Z,91.12
2023-01-13T05:03:45.919Z,91.22
2023-01-13T05:04:46.013Z,91.12
2023-01-13T05:05:46.138Z,91.02
2023-01-13T05:06:46.287Z,91.33
2023-01-13T05:07:47.401Z,91.22
2023-01-13T05:08:46.800Z,90.71
2023-01-13T05:09:46.756Z,90.71
2023-01-13T05:10:46.975Z,90.91
2023-01-13T05:11:47.019Z,91.33
2023-01-13T05:12:47.295Z,92.08
2023-01-13T05:13:47.637Z,91.88
2023-01-13T05:14:47.937Z,91.57
2023-01-13T05:15:48.232Z,91.67
2023-01-13T05:16:48.105Z,91.42
2023-01-13T05:17:47.941Z,91.42
2023-01-13T05:18:48.014Z,91.53
2023-01-13T05:19:48.093Z,91.78
2023-01-13T05:20:48.205Z,92.60
2023-01-13T05:21:48.456Z,92.29
2023-01-13T05:22:48.539Z,91.88
2023-01-13T05:23:48.727Z,91.47
2023-01-13T05:24:48.757Z,91.12
2023-01-13T05:25:48.969Z,91.37
2023-01-13T05:26:49.067Z,91.88
2023-01-13T05:27:50.118Z,91.78
2023-01-13T05:28:52.085Z,91.99
2023-01-13T05:29:49.784Z,92.50
2023-01-13T05:30:49.932Z,92.08
2023-01-13T05:31:49.887Z,91.99
2023-01-13T05:32:50.085Z,91.67
2023-01-13T05:33:50.621Z,91.47
2023-01-13T05:34:50.442Z,91.47
2023-01-13T05:35:50.419Z,91.78
2023-01-13T05:36:50.635Z,91.37
2023-01-13T05:37:50.626Z,91.47
2023-01-13T05:38:50.808Z,91.88
2023-01-13T05:39:51.600Z,91.88
2023-01-13T05:40:59.610Z,91.67
2023-01-13T05:41:51.116Z,91.78
2023-01-13T05:42:51.274Z,92.08
2023-01-13T05:43:51.435Z,92.50
2023-01-13T05:44:51.563Z,92.64
2023-01-13T05:45:51.707Z,92.44
2023-01-13T05:46:51.924Z,92.85
2023-01-13T05:47:51.999Z,92.74
2023-01-13T05:48:52.208Z,92.95
2023-01-13T05:49:52.278Z,93.36
2023-01-13T05:50:52.433Z,93.46
2023-01-13T05:51:52.561Z,93.57
2023-01-13T05:52:52.676Z,93.77
2023-01-13T05:53:52.816Z,93.98
2023-01-13T05:54:52.973Z,94.33
2023-01-13T05:55:53.091Z,93.67
2023-01-13T05:56:53.224Z,93.57
2023-01-13T05:57:53.364Z,93.77
2023-01-13T05:58:53.515Z,93.77
2023-01-13T05:59:53.633Z,93.87
2023-01-13T06:00:53.849Z,93.87
2023-01-13T06:01:53.896Z,94.08
2023-01-13T06:02:54.083Z,94.39
2023-01-13T06:03:54.199Z,94.49
2023-01-13T06:04:54.340Z,94.59
2023-01-13T06:05:54.460Z,95.15
2023-01-13T06:06:54.625Z,95.01
2023-01-13T06:07:54.744Z,95.21
2023-01-13T06:08:54.873Z,95.36
2023-01-13T06:09:55.001Z,95.36
2023-01-13T06:10:55.159Z,95.21
2023-01-13T06:11:55.299Z,95.10
2023-01-13T06:12:55.422Z,95.31
2023-01-13T06:13:55.541Z,95.87
2023-01-13T06:14:55.694Z,96.39
2023-01-13T06:15:55.933Z,96.08
2023-01-13T06:16:56.013Z,95.62
2023-01-13T06:17:56.146Z,95.42
2023-01-13T06:18:56.286Z,95.83
2023-01-13T06:19:56.446Z,96.18
2023-01-13T06:20:56.603Z,96.08
2023-01-13T06:21:56.780Z,96.48
2023-01-13T06:22:56.928Z,96.59
2023-01-13T06:23:57.049Z,96.39
2023-01-13T06:24:57.182Z,95.52
2023-01-13T06:25:57.353Z,95.77
2023-01-13T06:26:57.524Z,95.56
2023-01-13T06:27:57.652Z,95.56
2023-01-13T06:28:57.809Z,95.87
2023-01-13T06:29:57.940Z,95.46
2023-01-13T06:30:58.101Z,95.77
2023-01-13T06:31:58.253Z,95.77
2023-01-13T06:32:58.394Z,95.67
2023-01-13T06:33:58.559Z,95.56
2023-01-13T06:34:58.708Z,95.36
2023-01-13T06:35:58.850Z,95.46
2023-01-13T06:36:59.031Z,95.67
2023-01-13T06:37:59.093Z,95.77
2023-01-13T06:38:59.217Z,95.87
2023-01-13T06:39:59.349Z,95.36
2023-01-13T06:40:59.511Z,95.15
2023-01-13T06:41:59.702Z,95.25
2023-01-13T06:42:59.836Z,95.67
2023-01-13T06:44:00.539Z,95.87
2023-01-13T06:45:00.166Z,95.77
2023-01-13T06:46:00.302Z,95.97
2023-01-13T06:47:00.471Z,95.56
2023-01-13T06:48:00.598Z,95.46
2023-01-13T06:49:00.710Z,95.56
2023-01-13T06:50:00.819Z,95.67
2023-01-13T06:51:00.955Z,95.25
2023-01-13T06:52:01.108Z,95.36
2023-01-13T06:53:01.250Z,95.46
2023-01-13T06:54:01.379Z,95.25
2023-01-13T06:55:01.508Z,94.74
2023-01-13T06:56:03.086Z,94.43
2023-01-13T06:57:01.798Z,94.33
2023-01-13T06:58:01.930Z,94.54
2023-01-13T06:59:02.074Z,94.84
2023-01-13T07:00:02.220Z,94.74
2023-01-13T07:01:02.523Z,94.95
2023-01-13T07:02:02.765Z,95.05
2023-01-13T07:03:02.660Z,94.43
2023-01-13T07:04:02.719Z,93.82
2023-01-13T07:05:02.847Z,93.92
2023-01-13T07:06:02.981Z,93.92
2023-01-13T07:07:03.147Z,93.92
2023-01-13T07:08:03.417Z,94.12
2023-01-13T07:09:04.619Z,94.12
2023-01-13T07:10:03.563Z,94.02
2023-01-13T07:11:03.711Z,94.02
2023-01-13T07:12:03.851Z,93.71
2023-01-13T07:13:04.017Z,93.71
2023-01-13T07:14:04.176Z,93.40
2023-01-13T07:15:04.324Z,93.40
2023-01-13T07:16:04.478Z,93.10
2023-01-13T07:17:04.638Z,93.40
2023-01-13T07:18:04.791Z,93.40
2023-01-13T07:19:04.885Z,93.30
2023-01-13T07:20:05.005Z,92.79
2023-01-13T07:21:05.201Z,92.89
2023-01-13T07:22:05.295Z,92.69
2023-01-13T07:23:05.456Z,92.79
2023-01-13T07:24:05.597Z,93.20
2023-01-13T07:25:05.695Z,93.20
2023-01-13T07:26:05.805Z,93.30
2023-01-13T07:27:05.945Z,92.58
2023-01-13T07:28:06.112Z,92.27
2023-01-13T07:29:06.237Z,92.48
2023-01-13T07:30:06.375Z,92.27
2023-01-13T07:31:06.529Z,92.07
2023-01-13T07:32:06.654Z,92.17
2023-01-13T07:33:06.732Z,92.17
2023-01-13T07:34:07.449Z,92.38
2023-01-13T07:35:07.045Z,92.27
2023-01-13T07:36:07.189Z,91.97
2023-01-13T07:37:07.286Z,91.66
2023-01-13T07:38:07.414Z,91.55
2023-01-13T07:39:07.575Z,91.66
2023-01-13T07:40:07.692Z,91.86
2023-01-13T07:41:07.847Z,92.17
2023-01-13T07:42:07.934Z,91.35
2023-01-13T07:43:08.063Z,91.45
2023-01-13T07:44:08.182Z,91.14
2023-01-13T07:45:10.273Z,91.25
2023-01-13T07:46:08.527Z,91.04
2023-01-13T07:47:08.602Z,91.14
2023-01-13T07:48:08.704Z,90.59
2023-01-13T07:49:08.873Z,91.00
2023-01-13T07:50:08.968Z,90.94
2023-01-13T07:51:09.104Z,91.04
2023-01-13T07:52:09.239Z,91.25
2023-01-13T07:53:09.377Z,90.18
2023-01-13T07:54:09.497Z,90.28
2023-01-13T07:55:09.675Z,90.38
2023-01-13T07:56:09.802Z,90.28
2023-01-13T07:57:10.766Z,90.69
2023-01-13T07:58:10.116Z,90.59
2023-01-13T07:59:10.228Z,90.48
2023-01-13T08:00:12.777Z,90.69
2023-01-13T08:01:10.735Z,90.80
2023-01-13T08:02:10.913Z,91.00
2023-01-13T08:03:10.888Z,91.00
2023-01-13T08:04:10.927Z,90.80
2023-01-13T08:05:11.095Z,90.69
2023-01-13T08:06:11.225Z,90.69
2023-01-13T08:07:11.339Z,90.69
2023-01-13T08:08:11.469Z,90.08
2023-01-13T08:09:11.618Z,90.08
2023-01-13T08:10:11.765Z,90.08
2023-01-13T08:11:11.924Z,90.18
2023-01-13T08:12:12.084Z,90.59
2023-01-13T08:13:12.222Z,90.59
2023-01-13T08:14:12.375Z,90.59
2023-01-13T08:15:12.531Z,90.28
2023-01-13T08:16:12.788Z,90.69
2023-01-13T08:17:12.913Z,90.28
2023-01-13T08:18:13.044Z,90.08
2023-01-13T08:19:13.190Z,90.48
2023-01-13T08:20:13.330Z,90.28
2023-01-13T08:21:13.457Z,90.80
2023-01-13T08:22:13.616Z,89.97
2023-01-13T08:23:13.709Z,89.56
2023-01-13T08:24:13.839Z,89.87
2023-01-13T08:25:13.978Z,89.66
2023-01-13T08:26:14.094Z,89.56
2023-01-13T08:27:14.330Z,89.56
2023-01-13T08:28:14.370Z,89.97
2023-01-13T08:29:15.154Z,90.18
2023-01-13T08:30:14.635Z,90.59
2023-01-13T08:31:14.823Z,89.97
2023-01-13T08:32:14.953Z,89.97
2023-01-13T08:33:15.120Z,89.76
2023-01-13T08:34:15.252Z,89.66
2023-01-13T08:35:15.405Z,89.36
2023-01-13T08:36:15.489Z,89.46
2023-01-13T08:37:15.641Z,89.46
2023-01-13T08:38:16.525Z,89.87
2023-01-13T08:39:15.940Z,89.25
2023-01-13T08:40:16.014Z,88.23
2023-01-13T08:41:16.131Z,88.53
2023-01-13T08:42:16.282Z,88.33
2023-01-13T08:43:16.448Z,88.33
2023-01-13T08:44:16.536Z,87.26
2023-01-13T08:45:16.715Z,87.88
2023-01-13T08:46:16.769Z,88.33
2023-01-13T08:47:16.928Z,88.53
2023-01-13T08:48:17.070Z,88.53
2023-01-13T08:49:17.217Z,88.33
2023-01-13T08:50:18.808Z,88.33
2023-01-13T08:51:17.552Z,88.43
2023-01-13T08:52:17.737Z,88.74
2023-01-13T08:53:17.836Z,88.95
2023-01-13T08:54:18.014Z,88.74
2023-01-13T08:55:18.156Z,88.74
2023-01-13T08:56:18.259Z,87.92
2023-01-13T08:57:18.510Z,88.08
2023-01-13T08:58:18.560Z,87.92
2023-01-13T08:59:18.715Z,87.67
2023-01-13T09:00:18.856Z,88.29
2023-01-13T09:01:19.102Z,88.08
2023-01-13T09:02:19.254Z,87.26
2023-01-13T09:03:19.284Z,87.57
2023-01-13T09:04:19.605Z,88.08
2023-01-13T09:05:19.598Z,87.77
2023-01-13T09:06:19.728Z,87.88
2023-01-13T09:07:19.866Z,87.88
2023-01-13T09:08:19.987Z,87.57
2023-01-13T09:09:20.138Z,87.46
2023-01-13T09:10:20.294Z,87.16
2023-01-13T09:11:20.464Z,87.57
2023-01-13T09:12:20.621Z,87.77
2023-01-13T09:13:20.730Z,87.46
2023-01-13T09:14:20.917Z,87.77
2023-01-13T09:15:21.067Z,87.88
2023-01-13T09:16:21.205Z,87.16
2023-01-13T09:17:21.345Z,86.65
2023-01-13T09:18:21.500Z,87.05
2023-01-13T09:19:21.668Z,87.26
2023-01-13T09:20:21.815Z,87.57
2023-01-13T09:21:21.980Z,87.57
2023-01-13T09:22:22.142Z,87.46
2023-01-13T09:23:22.273Z,87.46
2023-01-13T09:24:22.417Z,87.37
2023-01-13T09:25:22.542Z,87.46
2023-01-13T09:26:22.686Z,87.26
2023-01-13T09:27:22.865Z,87.57
2023-01-13T09:28:23.028Z,87.57
2023-01-13T09:29:23.170Z,87.26
2023-01-13T09:30:23.347Z,87.37
2023-01-13T09:31:23.461Z,87.26
2023-01-13T09:32:23.648Z,87.02
2023-01-13T09:33:23.737Z,87.02
2023-01-13T09:34:23.924Z,87.22
2023-01-13T09:35:24.017Z,87.32
2023-01-13T09:36:24.181Z,87.22
2023-01-13T09:37:24.329Z,86.91
2023-01-13T09:38:24.514Z,87.32
2023-01-13T09:39:24.653Z,87.73
2023-01-13T09:40:24.804Z,87.53
2023-01-13T09:41:24.959Z,87.43
2023-01-13T09:42:25.122Z,87.63
2023-01-13T09:43:25.237Z,87.53
2023-01-13T09:44:25.365Z,87.73
2023-01-13T09:45:25.517Z,87.63
2023-01-13T09:46:25.624Z,87.63
2023-01-13T09:47:25.709Z,87.63
2023-01-13T09:48:25.845Z,87.22
2023-01-13T09:49:25.983Z,87.53
2023-01-13T09:50:26.135Z,87.43
2023-01-13T09:51:26.338Z,88.00
2023-01-13T09:52:27.195Z,87.28
2023-01-13T09:53:26.567Z,87.28
2023-01-13T09:54:26.705Z,87.28
2023-01-13T09:55:26.866Z,86.77
2023-01-13T09:56:27.011Z,86.15
2023-01-13T09:57:27.106Z,86.15
2023-01-13T09:58:27.253Z,86.46
2023-01-13T09:59:27.412Z,86.57
2023-01-13T10:00:27.534Z,86.25
2023-01-13T10:01:27.707Z,86.25
2023-01-13T10:02:27.786Z,86.15
2023-01-13T10:03:27.895Z,86.63
2023-01-13T10:04:28.026Z,86.05
2023-01-13T10:05:28.087Z,86.36
2023-01-13T10:06:28.227Z,86.01
2023-01-13T10:07:28.320Z,86.11
2023-01-13T10:08:28.473Z,86.01
2023-01-13T10:09:28.625Z,86.22
2023-01-13T10:10:28.763Z,86.11
2023-01-13T10:11:28.918Z,86.22
2023-01-13T10:12:29.063Z,85.50
2023-01-13T10:13:29.270Z,85.80
2023-01-13T10:14:29.389Z,85.71
2023-01-13T10:15:29.545Z,85.50
2023-01-13T10:16:29.861Z,85.30
2023-01-13T10:17:29.841Z,85.39
2023-01-13T10:18:29.981Z,85.30
2023-01-13T10:19:30.148Z,85.91
2023-01-13T10:20:30.272Z,85.91
2023-01-13T10:21:30.471Z,85.80
2023-01-13T10:22:30.541Z,85.50
2023-01-13T10:23:30.671Z,85.30
2023-01-13T10:24:30.823Z,85.19
2023-01-13T10:25:30.910Z,85.19
2023-01-13T10:26:31.131Z,85.30
2023-01-13T10:27:31.203Z,85.50
2023-01-13T10:28:31.351Z,85.39
2023-01-13T10:29:31.430Z,84.78
2023-01-13T10:30:31.735Z,84.58
2023-01-13T10:31:31.731Z,84.47
2023-01-13T10:32:31.792Z,84.78
2023-01-13T10:33:32.012Z,85.09
2023-01-13T10:34:32.060Z,85.19
2023-01-13T10:35:32.149Z,85.60
2023-01-13T10:36:32.298Z,85.30
2023-01-13T10:37:32.471Z,85.30
2023-01-13T10:38:32.634Z,85.09
2023-01-13T10:39:32.802Z,85.60
2023-01-13T10:40:32.956Z,85.19
2023-01-13T10:41:33.106Z,85.50
2023-01-13T10:42:33.232Z,85.80
2023-01-13T10:43:33.378Z,86.01
2023-01-13T10:44:33.489Z,86.42
2023-01-13T10:45:33.660Z,86.22
2023-01-13T10:46:33.836Z,85.91
2023-01-13T10:47:33.910Z,86.48
2023-01-13T10:48:34.077Z,85.46
2023-01-13T10:49:34.159Z,85.11
2023-01-13T10:50:34.301Z,84.91
2023-01-13T10:51:34.409Z,84.05
2023-01-13T10:52:34.592Z,83.95
2023-01-13T10:53:34.670Z,84.77
2023-01-13T10:54:34.911Z,83.74
2023-01-13T10:55:34.962Z,83.68
2023-01-13T10:56:35.107Z,84.53
2023-01-13T10:57:35.230Z,84.29
2023-01-13T10:58:35.392Z,83.98
2023-01-13T10:59:35.498Z,84.74
2023-01-13T11:00:35.650Z,85.36
2023-01-13T11:01:35.865Z,85.56
2023-01-13T11:02:36.231Z,85.91
2023-01-13T11:03:36.106Z,86.11
2023-01-13T11:04:36.326Z,85.71
2023-01-13T11:05:36.351Z,85.91
2023-01-13T11:06:36.481Z,86.11
2023-01-13T11:07:36.622Z,86.11
2023-01-13T11:08:36.733Z,86.63
2023-01-13T11:09:36.857Z,86.42
2023-01-13T11:10:36.991Z,86.83
2023-01-13T11:11:37.119Z,87.45
2023-01-13T11:12:37.329Z,87.76
2023-01-13T11:13:37.405Z,87.70
2023-01-13T11:14:37.562Z,87.18
2023-01-13T11:15:37.700Z,86.93
2023-01-13T11:16:40.737Z,86.32
2023-01-13T11:17:37.941Z,86.52
2023-01-13T11:18:38.083Z,86.52
2023-01-13T11:19:38.241Z,86.63
2023-01-13T11:20:38.374Z,86.32
2023-01-13T11:21:38.508Z,85.91
2023-01-13T11:22:38.638Z,85.91
2023-01-13T11:23:38.768Z,86.22
2023-01-13T11:24:38.909Z,86.11
2023-01-13T11:25:39.067Z,86.32
2023-01-13T11:26:39.211Z,86.11
2023-01-13T11:27:39.310Z,86.73
2023-01-13T11:28:39.481Z,87.24
2023-01-13T11:29:39.648Z,87.49
2023-01-13T11:30:39.761Z,88.51
2023-01-13T11:31:39.927Z,88.10
2023-01-13T11:32:40.038Z,88.51
2023-01-13T11:33:40.201Z,89.54
2023-01-13T11:34:40.337Z,89.13
2023-01-13T11:35:40.418Z,89.48
2023-01-13T11:36:41.104Z,89.89
2023-01-13T11:37:40.735Z,90.30
2023-01-13T11:38:40.868Z,90.71
2023-01-13T11:39:40.998Z,90.61
2023-01-13T11:40:41.176Z,90.09
2023-01-13T11:41:51.362Z,89.89
2023-01-13T11:42:41.434Z,90.20
2023-01-13T11:43:41.491Z,89.99
2023-01-13T11:44:41.645Z,90.09
2023-01-13T11:45:41.821Z,90.30
2023-01-13T11:46:41.999Z,90.81
2023-01-13T11:47:42.081Z,92.04
2023-01-13T11:48:42.264Z,92.76
2023-01-13T11:49:42.342Z,93.01
2023-01-13T11:50:42.485Z,93.83
2023-01-13T11:51:42.579Z,94.34
2023-01-13T11:52:42.757Z,94.65
2023-01-13T11:53:42.883Z,94.24
2023-01-13T11:54:43.021Z,94.76
2023-01-13T11:55:43.121Z,94.55
2023-01-13T11:56:44.264Z,94.34
2023-01-13T11:57:43.392Z,94.45
2023-01-13T11:58:50.610Z,94.76
2023-01-13T11:59:44.691Z,94.96
2023-01-13T12:00:43.771Z,94.45
2023-01-13T12:01:43.914Z,94.45
2023-01-13T12:02:44.149Z,94.85
2023-01-13T12:03:44.339Z,95.01
2023-01-13T12:04:45.499Z,94.80
2023-01-13T12:05:44.535Z,95.01
2023-01-13T12:06:44.679Z,96.34
2023-01-13T12:07:44.794Z,97.10
2023-01-13T12:08:44.931Z,97.41
2023-01-13T12:09:45.027Z,97.31
2023-01-13T12:10:45.182Z,97.10
2023-01-13T12:11:45.304Z,97.87
2023-01-13T12:12:45.448Z,98.28
2023-01-13T12:13:45.559Z,98.28
2023-01-13T12:14:45.676Z,98.28
2023-01-13T12:15:45.825Z,97.77
2023-01-13T12:16:46.027Z,98.28
2023-01-13T12:17:46.076Z,98.49
2023-01-13T12:18:46.211Z,98.75
2023-01-13T12:19:46.389Z,99.05
2023-01-13T12:20:46.523Z,98.24
2023-01-13T12:21:46.599Z,97.99
2023-01-13T12:22:46.762Z,98.29
2023-01-13T12:23:46.937Z,97.83
2023-01-13T12:24:47.103Z,97.88
2023-01-13T12:25:47.174Z,98.08
2023-01-13T12:26:47.352Z,98.39
2023-01-13T12:27:47.777Z,99.01
2023-01-13T12:28:47.772Z,99.11
2023-01-13T12:29:47.728Z,98.80
2023-01-13T12:30:47.871Z,98.60
2023-01-13T12:31:48.019Z,98.80
2023-01-13T12:32:48.110Z,98.60
2023-01-13T12:33:48.257Z,97.47
2023-01-13T12:34:48.396Z,97.37
2023-01-13T12:35:48.514Z,97.78
2023-01-13T12:36:48.689Z,97.57
2023-01-13T12:37:48.824Z,97.32
2023-01-13T12:38:48.980Z,96.70
2023-01-13T12:39:49.144Z,96.30
2023-01-13T12:40:49.250Z,96.40
2023-01-13T12:41:49.441Z,96.40
2023-01-13T12:42:50.257Z,95.89
2023-01-13T12:43:49.773Z,96.04
2023-01-13T12:44:49.804Z,95.84
2023-01-13T12:45:50.059Z,96.09
2023-01-13T12:46:50.187Z,95.98
2023-01-13T12:47:50.225Z,95.57
2023-01-13T12:48:51.117Z,95.47
2023-01-13T12:49:50.711Z,95.64
2023-01-13T12:50:50.785Z,96.15
2023-01-13T12:51:50.804Z,95.18
2023-01-13T12:52:51.043Z,93.74
2023-01-13T12:53:51.085Z,93.95